Time;durP1;ratioP1;P1;durP2;ratioP2;P2;SDS_P1;SDS_P2;PMS_P1;PMS_P2;Temp;Humidity;BMP_temperature;BMP_pressure;BME280_temperature;BME280_humidity;BME280_pressure;Samples;Min_cycle;Max_cycle;Signal;HPM_P1;HPM_P2
2021/11/25 00:00:57;;;;;;;29.60;17.70;;;;;;;6.68;77.80;100411.81;126312;1312;106934;-80
2021/11/25 00:04:02;;;;;;;27.10;17.50;;;;;;;6.70;77.68;100405.46;126294;1313;108817;-79
2021/11/25 00:07:07;;;;;;;29.00;18.00;;;;;;;6.68;77.89;100404.18;126417;1312;109048;-79
2021/11/25 00:10:14;;;;;;;27.40;17.00;;;;;;;6.66;77.63;100403.48;126413;1312;108738;-78
2021/11/25 00:13:20;;;;;;;29.40;16.80;;;;;;;6.63;77.50;100403.52;126259;1312;108628;-78
2021/11/25 00:16:25;;;;;;;28.20;16.40;;;;;;;6.60;77.49;100396.19;126303;1315;108838;-79
2021/11/25 00:19:30;;;;;;;25.90;16.30;;;;;;;6.61;77.75;100394.19;126246;1313;108922;-79
2021/11/25 00:22:36;;;;;;;29.00;17.30;;;;;;;6.63;77.61;100394.14;126286;1312;108751;-80
2021/11/25 00:25:42;;;;;;;32.40;17.70;;;;;;;6.68;77.66;100392.39;126439;1313;109116;-80
2021/11/25 00:28:47;;;;;;;26.30;16.60;;;;;;;6.71;77.58;100386.13;126446;1313;109193;-80
2021/11/25 00:31:53;;;;;;;28.60;17.20;;;;;;;6.71;77.67;100385.06;126533;1312;109029;-79
2021/11/25 00:34:59;;;;;;;27.90;17.60;;;;;;;6.69;77.32;100386.28;126431;1316;108848;-80
2021/11/25 00:38:05;;;;;;;28.20;18.10;;;;;;;6.65;77.69;100386.59;126276;1312;108798;-78
2021/11/25 00:41:11;;;;;;;25.90;15.60;;;;;;;6.60;77.35;100383.32;126433;1312;108993;-77
2021/11/25 00:44:18;;;;;;;26.10;16.00;;;;;;;6.58;77.32;100384.31;126304;1312;109569;-80
2021/11/25 00:47:23;;;;;;;27.80;16.90;;;;;;;6.59;77.47;100382.31;126375;1317;107706;-79
2021/11/25 00:50:29;;;;;;;27.70;16.60;;;;;;;6.61;77.39;100378.60;126452;1313;108993;-79
2021/11/25 00:53:34;;;;;;;27.50;17.10;;;;;;;6.64;77.23;100372.72;126420;1312;108824;-79
2021/11/25 00:56:40;;;;;;;25.80;16.70;;;;;;;6.64;77.17;100369.52;126438;1313;108665;-79
2021/11/25 00:59:45;;;;;;;26.80;16.80;;;;;;;6.65;77.26;100362.38;126397;1312;108966;-79
2021/11/25 01:02:52;;;;;;;25.70;16.10;;;;;;;6.65;77.25;100359.90;126437;1313;108581;-79
2021/11/25 01:05:57;;;;;;;24.90;15.70;;;;;;;6.62;76.97;100354.69;126413;1312;108836;-80
2021/11/25 01:09:04;;;;;;;26.40;16.60;;;;;;;6.56;77.01;100354.80;126328;1313;109244;-78
2021/11/25 01:12:11;;;;;;;24.10;15.00;;;;;;;6.54;77.13;100356.04;126259;1312;107751;-76
2021/11/25 01:15:19;;;;;;;23.20;13.80;;;;;;;6.51;77.11;100351.87;126331;1312;108729;-78
2021/11/25 01:18:24;;;;;;;27.40;15.60;;;;;;;6.51;77.10;100350.80;126406;1314;108897;-78
2021/11/25 01:21:30;;;;;;;26.40;16.00;;;;;;;6.54;77.03;100353.92;126272;1314;109064;-77
2021/11/25 01:24:35;;;;;;;25.10;16.10;;;;;;;6.57;77.02;100350.29;126387;1313;108872;-78
2021/11/25 01:27:41;;;;;;;25.00;14.90;;;;;;;6.58;76.73;100351.98;126445;1313;108741;-79
2021/11/25 01:30:48;;;;;;;25.30;16.40;;;;;;;6.57;76.69;100348.04;126443;1314;108797;-78
2021/11/25 01:33:53;;;;;;;25.30;15.50;;;;;;;6.57;76.59;100340.23;126366;1316;108866;-79
2021/11/25 01:36:59;;;;;;;26.10;15.40;;;;;;;6.55;76.58;100336.49;126226;1312;108922;-77
2021/11/25 01:40:07;;;;;;;25.20;15.50;;;;;;;6.50;76.69;100332.66;126344;1312;108853;-77
2021/11/25 01:43:14;;;;;;;23.80;14.40;;;;;;;6.44;76.79;100327.70;126291;1312;108918;-76
2021/11/25 01:46:21;;;;;;;24.40;13.90;;;;;;;6.41;76.75;100323.50;126455;1312;108641;-77
2021/11/25 01:49:27;;;;;;;27.70;15.30;;;;;;;6.41;76.73;100315.33;126372;1314;109894;-76
2021/11/25 01:52:32;;;;;;;26.50;15.70;;;;;;;6.41;76.74;100309.58;126220;1313;109011;-77
2021/11/25 01:55:37;;;;;;;26.50;16.20;;;;;;;6.42;76.76;100304.17;126217;1312;108774;-77
2021/11/25 01:58:43;;;;;;;29.20;17.30;;;;;;;6.45;76.40;100297.97;126316;1312;108858;-75
2021/11/25 02:01:49;;;;;;;28.40;16.90;;;;;;;6.44;76.55;100294.68;126310;1312;108595;-79
2021/11/25 02:04:54;;;;;;;28.70;18.40;;;;;;;6.40;76.34;100291.44;126364;1313;108949;-78
2021/11/25 02:08:00;;;;;;;35.50;20.70;;;;;;;6.37;76.41;100285.71;126275;1313;108897;-79
2021/11/25 02:11:08;;;;;;;34.60;19.60;;;;;;;6.31;76.45;100283.87;126162;1314;108786;-77
2021/11/25 02:14:13;;;;;;;31.00;18.50;;;;;;;6.26;76.45;100281.63;126451;1312;108678;-78
2021/11/25 02:17:20;;;;;;;31.70;18.30;;;;;;;6.23;76.44;100285.77;126407;1312;108891;-77
2021/11/25 02:20:31;;;;;;;32.40;19.40;;;;;;;6.22;76.58;100279.83;126450;1315;108462;-76
2021/11/25 02:23:37;;;;;;;34.00;21.70;;;;;;;6.23;76.44;100279.16;126454;1312;107422;-79
2021/11/25 02:26:43;;;;;;;34.50;20.70;;;;;;;6.26;76.48;100268.52;126437;1314;108679;-78
2021/11/25 02:29:49;;;;;;;35.70;21.50;;;;;;;6.28;76.45;100265.02;126457;1312;108813;-79
2021/11/25 02:32:55;;;;;;;37.30;22.80;;;;;;;6.27;76.21;100256.05;126439;1312;108711;-79
2021/11/25 02:36:01;;;;;;;39.20;23.60;;;;;;;6.27;76.13;100249.01;126286;1312;108946;-79
2021/11/25 02:39:06;;;;;;;38.80;22.80;;;;;;;6.24;76.12;100247.81;126304;1312;108907;-79
2021/11/25 02:42:12;;;;;;;36.90;23.00;;;;;;;6.21;76.15;100245.45;126412;1312;109076;-81
2021/11/25 02:45:17;;;;;;;37.80;21.60;;;;;;;6.15;76.11;100239.59;126558;1314;107827;-79
2021/11/25 02:48:26;;;;;;;37.20;21.50;;;;;;;6.10;76.06;100239.96;126362;1313;109367;-81
2021/11/25 02:51:32;;;;;;;38.70;22.50;;;;;;;6.05;76.20;100239.84;126359;1312;108803;-79
2021/11/25 02:54:37;;;;;;;40.00;23.10;;;;;;;6.05;76.01;100245.00;126333;1312;108108;-78
2021/11/25 02:57:44;;;;;;;37.90;23.20;;;;;;;6.06;76.01;100242.61;126267;1312;106728;-78
2021/11/25 03:00:51;;;;;;;37.70;22.70;;;;;;;6.06;75.91;100235.38;126335;1313;107927;-78
2021/11/25 03:03:57;;;;;;;36.20;23.30;;;;;;;6.04;75.96;100230.62;126430;1316;109041;-78
2021/11/25 03:07:02;;;;;;;39.10;23.50;;;;;;;5.98;75.88;100232.52;126316;1313;108803;-76
2021/11/25 03:10:08;;;;;;;40.20;23.50;;;;;;;5.87;75.52;100225.38;126232;1312;108946;-78
2021/11/25 03:13:16;;;;;;;37.50;24.10;;;;;;;5.72;75.43;100216.36;126259;1314;107298;-78
2021/11/25 03:16:24;;;;;;;39.90;23.70;;;;;;;5.57;75.50;100213.15;126266;1312;107784;-78
2021/11/25 03:19:30;;;;;;;36.40;23.20;;;;;;;5.38;75.63;100213.71;126269;1314;108526;-77
2021/11/25 03:22:35;;;;;;;38.10;22.30;;;;;;;5.20;75.63;100207.42;126343;1314;108599;-77
2021/11/25 03:25:42;;;;;;;36.80;22.20;;;;;;;5.05;75.47;100206.10;126205;1313;108877;-76
2021/11/25 03:28:48;;;;;;;35.80;20.60;;;;;;;4.93;75.67;100199.27;126361;1313;108695;-78
2021/11/25 03:31:53;;;;;;;36.70;22.10;;;;;;;4.85;75.65;100203.35;126436;1313;107618;-78
2021/11/25 03:34:59;;;;;;;38.50;22.90;;;;;;;4.75;75.37;100200.65;126386;1312;108773;-78
2021/11/25 03:38:06;;;;;;;40.30;22.00;;;;;;;4.66;75.33;100195.48;126427;1313;108801;-78
2021/11/25 03:41:14;;;;;;;42.10;22.90;;;;;;;4.57;75.37;100186.52;126470;1312;108838;-77
2021/11/25 03:44:19;;;;;;;39.10;22.40;;;;;;;4.47;75.10;100186.02;126457;1313;108832;-78
2021/11/25 03:47:25;;;;;;;40.60;23.10;;;;;;;4.35;75.16;100185.69;126266;1313;108788;-79
2021/11/25 03:50:30;;;;;;;40.90;22.20;;;;;;;4.22;75.11;100184.84;126301;1313;108803;-81
2021/11/25 03:53:38;;;;;;;38.10;22.40;;;;;;;4.10;75.25;100174.98;126393;1312;108846;-79
2021/11/25 03:56:44;;;;;;;38.50;22.80;;;;;;;3.97;75.09;100167.69;126416;1314;108948;-80
2021/11/25 03:59:49;;;;;;;40.70;23.80;;;;;;;3.86;74.97;100162.71;126257;1314;108737;-83
2021/11/25 04:02:55;;;;;;;40.00;22.00;;;;;;;3.74;75.31;100158.82;126328;1313;108853;-83
2021/11/25 04:06:01;;;;;;;40.70;22.10;;;;;;;3.65;75.19;100156.09;126469;1313;108805;-84
2021/11/25 04:09:07;;;;;;;37.90;19.80;;;;;;;3.61;75.20;100149.56;126349;1314;109033;-82
2021/11/25 04:12:13;;;;;;;43.10;24.30;;;;;;;3.55;75.16;100150.65;126303;1314;107067;-83
2021/11/25 04:15:19;;;;;;;43.10;23.70;;;;;;;3.49;75.31;100150.20;126458;1314;108943;-83
2021/11/25 04:18:25;;;;;;;42.00;24.30;;;;;;;3.47;75.32;100148.63;126332;1315;108835;-84
2021/11/25 04:21:30;;;;;;;45.10;24.80;;;;;;;3.42;75.29;100143.31;126385;1313;107866;-82
2021/11/25 04:24:36;;;;;;;45.10;24.90;;;;;;;3.40;75.39;100139.77;126584;1312;108804;-83
2021/11/25 04:27:42;;;;;;;41.90;23.90;;;;;;;3.34;75.18;100129.70;126447;1312;107187;-82
2021/11/25 04:35:27;;;;;;;47.70;25.40;;;;;;;3.27;75.16;100122.77;126359;1312;108872;-83
2021/11/25 04:37:43;;;;;;;40.30;23.50;;;;;;;3.10;74.95;100116.07;126364;1315;108835;-83
2021/11/25 04:40:53;;;;;;;37.90;21.50;;;;;;;3.01;74.89;100115.82;126237;1313;107501;-83
2021/11/25 04:43:59;;;;;;;40.60;22.20;;;;;;;2.94;74.74;100112.13;126252;1313;108492;-84
2021/11/25 04:47:06;;;;;;;38.50;21.40;;;;;;;2.84;74.70;100104.95;126179;1312;109127;-84
2021/11/25 04:50:11;;;;;;;31.20;17.50;;;;;;;2.78;74.63;100102.36;126248;1312;107744;-82
2021/11/25 04:53:17;;;;;;;33.80;18.90;;;;;;;2.77;74.71;100093.43;126324;1317;108897;-83
2021/11/25 04:56:23;;;;;;;32.60;19.80;;;;;;;2.76;74.57;100088.06;126547;1314;108801;-83
2021/11/25 04:59:28;;;;;;;34.20;19.80;;;;;;;2.73;74.63;100082.46;126489;1315;107948;-82
2021/11/25 05:02:34;;;;;;;34.30;20.30;;;;;;;2.73;74.53;100086.70;126288;1313;109054;-83
2021/11/25 05:05:40;;;;;;;38.00;21.30;;;;;;;2.69;74.45;100083.98;126259;1314;108818;-82
2021/11/25 05:08:45;;;;;;;36.10;21.10;;;;;;;2.63;74.60;100076.89;126439;1315;106670;-84
2021/11/25 05:11:51;;;;;;;39.60;22.40;;;;;;;2.58;74.55;100074.42;126345;1313;108920;-84
2021/11/25 05:14:56;;;;;;;40.20;21.40;;;;;;;2.50;74.49;100068.63;126412;1314;108777;-84
2021/11/25 05:18:02;;;;;;;36.10;21.40;;;;;;;2.44;74.53;100067.16;126235;1312;109003;-84
2021/11/25 05:21:07;;;;;;;36.40;21.40;;;;;;;2.36;74.48;100061.52;126320;1313;108888;-84
2021/11/25 05:24:14;;;;;;;36.20;21.60;;;;;;;2.29;74.58;100061.66;126318;1314;110082;-84
2021/11/25 05:27:20;;;;;;;42.40;24.20;;;;;;;2.21;74.63;100061.80;126323;1313;108729;-82
2021/11/25 05:30:30;;;;;;;40.50;23.00;;;;;;;2.16;74.83;100057.77;126393;1313;108805;-83
2021/11/25 05:33:36;;;;;;;35.90;20.10;;;;;;;2.15;74.78;100054.45;126462;1314;107914;-82
2021/11/25 05:36:41;;;;;;;39.90;22.00;;;;;;;2.20;74.93;100050.54;126442;1313;107774;-82
2021/11/25 05:39:47;;;;;;;35.80;20.40;;;;;;;2.21;74.69;100048.27;126322;1316;109026;-82
2021/11/25 05:42:53;;;;;;;37.60;21.40;;;;;;;2.21;74.70;100040.10;126409;1312;108992;-83
2021/11/25 05:45:58;;;;;;;39.20;22.50;;;;;;;2.20;74.74;100040.48;126383;1312;108788;-83
2021/11/25 05:49:04;;;;;;;36.50;21.30;;;;;;;2.17;74.72;100038.27;126329;1312;108726;-84
2021/11/25 05:52:09;;;;;;;38.00;21.20;;;;;;;2.14;74.63;100036.17;126347;1313;108795;-83
2021/11/25 05:55:15;;;;;;;39.20;22.60;;;;;;;2.13;74.62;100037.12;126524;1316;107858;-88
2021/11/25 05:58:21;;;;;;;38.80;21.90;;;;;;;2.09;74.53;100031.74;126469;1312;107453;-82
2021/11/25 06:01:26;;;;;;;37.70;22.00;;;;;;;2.04;74.54;100024.02;126636;1312;108934;-88
2021/11/25 06:04:32;;;;;;;42.30;23.40;;;;;;;2.01;74.69;100019.66;126477;1312;107892;-85
2021/11/25 06:07:41;;;;;;;41.40;22.00;;;;;;;1.97;74.60;100021.67;126449;1312;108697;-85
2021/11/25 06:10:46;;;;;;;35.90;18.60;;;;;;;1.95;74.50;100018.30;126331;1312;108968;-86
2021/11/25 06:13:52;;;;;;;37.10;20.40;;;;;;;1.97;74.46;100011.55;126160;1317;108931;-84
2021/11/25 06:16:57;;;;;;;36.40;19.80;;;;;;;1.98;74.43;100014.63;126138;1315;108792;-84
2021/11/25 06:20:03;;;;;;;35.10;19.80;;;;;;;1.98;74.22;100014.13;126384;1313;108907;-85
2021/11/25 06:23:10;;;;;;;34.40;19.90;;;;;;;1.91;74.05;100006.62;126164;1314;108885;-85
2021/11/25 06:26:15;;;;;;;34.60;20.30;;;;;;;1.85;74.04;100005.50;126422;1313;108709;-85
2021/11/25 06:29:21;;;;;;;42.10;22.70;;;;;;;1.80;73.96;100004.80;126459;1312;108773;-86
2021/11/25 06:32:26;;;;;;;38.70;21.80;;;;;;;1.75;73.95;100004.41;126557;1312;108753;-83
2021/11/25 06:35:32;;;;;;;33.90;20.30;;;;;;;1.73;74.09;100003.33;126489;1312;108750;-86
2021/11/25 06:38:38;;;;;;;37.50;20.90;;;;;;;1.73;74.08;100003.16;126704;1313;109004;-86
2021/11/25 06:41:43;;;;;;;37.80;21.50;;;;;;;1.68;73.80;99998.55;126593;1318;108815;-83
2021/11/25 06:44:49;;;;;;;36.00;21.50;;;;;;;1.60;73.77;100005.02;126386;1312;108695;-86
2021/11/25 06:47:56;;;;;;;36.40;21.80;;;;;;;1.54;73.91;100001.40;126547;1314;108925;-86
2021/11/25 06:51:01;;;;;;;48.60;25.00;;;;;;;1.52;74.01;100005.41;126461;1313;108739;-85
2021/11/25 06:54:06;;;;;;;48.30;24.10;;;;;;;1.53;74.05;100004.63;126190;1312;108807;-86
2021/11/25 06:57:12;;;;;;;37.80;20.20;;;;;;;1.56;74.05;99996.21;126512;1314;108778;-86
2021/11/25 07:00:21;;;;;;;39.20;22.60;;;;;;;1.61;74.01;99990.25;126369;1316;108862;-86
2021/11/25 07:03:27;;;;;;;43.10;24.80;;;;;;;1.64;73.88;99990.23;126555;1313;108851;-85
2021/11/25 07:06:34;;;;;;;43.80;24.30;;;;;;;1.68;74.03;99991.05;126416;1312;125911;-85
2021/11/25 07:09:39;;;;;;;38.70;23.60;;;;;;;1.74;73.90;99984.66;126382;1312;108845;-85
2021/11/25 07:12:46;;;;;;;44.60;24.30;;;;;;;1.81;73.97;99985.41;126662;1312;108956;-85
2021/11/25 07:15:51;;;;;;;39.30;22.70;;;;;;;1.84;73.93;99979.74;126549;1312;108859;-85
2021/11/25 07:18:57;;;;;;;38.20;22.20;;;;;;;1.87;73.91;99975.54;126536;1313;108735;-86
2021/11/25 07:22:02;;;;;;;41.90;23.80;;;;;;;1.90;73.91;99973.70;126492;1312;108941;-85
2021/11/25 07:25:11;;;;;;;44.80;25.50;;;;;;;1.94;74.08;99974.19;126429;1313;108591;-85
2021/11/25 07:28:16;;;;;;;43.40;25.80;;;;;;;1.94;73.98;99970.86;126550;1313;108936;-85
2021/11/25 07:31:25;;;;;;;46.10;26.10;;;;;;;1.96;74.15;99964.92;126394;1313;107213;-85
2021/11/25 07:34:31;;;;;;;50.80;26.40;;;;;;;1.97;74.29;99955.19;126363;1316;108778;-85
2021/11/25 07:37:37;;;;;;;50.40;26.50;;;;;;;2.01;74.35;99948.66;126530;1312;108731;-86
2021/11/25 07:40:44;;;;;;;43.40;22.40;;;;;;;2.06;74.56;99945.46;126502;1312;108876;-86
2021/11/25 07:43:50;;;;;;;45.60;24.40;;;;;;;2.17;74.63;99936.81;126433;1312;108744;-86
2021/11/25 07:46:55;;;;;;;43.50;25.30;;;;;;;2.29;74.56;99928.42;126554;1313;109707;-86
2021/11/25 07:50:02;;;;;;;44.00;24.10;;;;;;;2.37;74.61;99917.30;126673;1312;108787;-86
2021/11/25 07:53:08;;;;;;;43.10;24.90;;;;;;;2.46;74.57;99911.80;126573;1312;108851;-86
2021/11/25 07:56:13;;;;;;;41.90;24.50;;;;;;;2.54;74.62;99912.96;126598;1312;108806;-86
2021/11/25 07:59:18;;;;;;;42.40;24.00;;;;;;;2.62;74.63;99906.45;126590;1313;108884;-86
2021/11/25 08:02:24;;;;;;;42.40;23.80;;;;;;;2.67;74.69;99901.50;126496;1312;108806;-85
2021/11/25 08:05:30;;;;;;;46.60;25.10;;;;;;;2.73;74.62;99900.70;126511;1312;108922;-85
2021/11/25 08:08:36;;;;;;;46.10;25.00;;;;;;;2.76;74.63;99897.34;126522;1312;108922;-87
2021/11/25 08:11:41;;;;;;;45.50;24.60;;;;;;;2.79;74.68;99894.65;126461;1312;108784;-86
2021/11/25 08:14:46;;;;;;;41.80;23.20;;;;;;;2.85;74.78;99885.45;126465;1314;108702;-86
2021/11/25 08:17:52;;;;;;;33.40;18.30;;;;;;;2.92;74.74;99880.88;126432;1312;109098;-85
2021/11/25 08:20:57;;;;;;;36.20;20.90;;;;;;;3.03;74.69;99874.12;126575;1313;106876;-86
2021/11/25 08:24:03;;;;;;;41.00;21.90;;;;;;;3.15;74.73;99869.89;126654;1313;109004;-86
2021/11/25 08:27:10;;;;;;;40.10;21.50;;;;;;;3.25;74.69;99867.70;126636;1312;108961;-86
2021/11/25 08:30:16;;;;;;;34.90;19.60;;;;;;;3.32;74.41;99868.95;126610;1312;107779;-86
2021/11/25 08:33:22;;;;;;;35.70;20.90;;;;;;;3.35;74.47;99863.73;126530;1313;108814;-86
2021/11/25 08:36:27;;;;;;;35.50;21.80;;;;;;;3.39;74.40;99863.31;126756;1312;107878;-86
2021/11/25 08:39:34;;;;;;;35.90;20.30;;;;;;;3.40;74.41;99853.70;126485;1316;109027;-87
2021/11/25 08:42:39;;;;;;;35.70;20.80;;;;;;;3.40;74.32;99850.76;126639;1312;108704;-87
2021/11/25 08:45:45;;;;;;;36.60;21.20;;;;;;;3.42;74.33;99840.95;126448;1316;108828;-87
2021/11/25 08:48:50;;;;;;;39.00;22.10;;;;;;;3.43;74.19;99833.14;126422;1312;109007;-86
2021/11/25 08:51:56;;;;;;;37.80;21.70;;;;;;;3.43;74.26;99831.36;126623;1312;108794;-84
2021/11/25 08:55:01;;;;;;;33.00;18.50;;;;;;;3.46;74.37;99825.15;126382;1313;108455;-86
2021/11/25 08:58:07;;;;;;;34.30;20.90;;;;;;;3.54;74.28;99824.02;126526;1314;108731;-86
2021/11/25 09:01:13;;;;;;;36.00;21.00;;;;;;;3.62;74.11;99819.86;126593;1314;108855;-86
2021/11/25 09:04:19;;;;;;;37.50;22.40;;;;;;;3.69;73.97;99819.71;126523;1315;109018;-90
2021/11/25 09:07:24;;;;;;;36.60;20.80;;;;;;;3.72;74.11;99812.37;126461;1318;108860;-89
2021/11/25 09:10:30;;;;;;;38.10;21.20;;;;;;;3.79;74.11;99813.64;126418;1313;108982;-87
2021/11/25 09:13:35;;;;;;;38.40;22.10;;;;;;;3.83;74.03;99804.66;126591;1313;108908;-89
2021/11/25 09:16:42;;;;;;;37.70;22.20;;;;;;;3.86;74.05;99796.14;126464;1314;107885;-90
2021/11/25 09:19:47;;;;;;;36.20;21.70;;;;;;;3.90;74.06;99793.04;126512;1316;107907;-88
2021/11/25 09:22:53;;;;;;;38.90;22.00;;;;;;;3.93;73.91;99786.83;126275;1315;107460;-85
2021/11/25 09:25:59;;;;;;;40.10;21.80;;;;;;;3.93;74.00;99784.88;126293;1314;107759;-86
2021/11/25 09:29:06;;;;;;;37.60;21.20;;;;;;;3.99;74.13;99784.95;126196;1316;108766;-87
2021/11/25 09:32:12;;;;;;;33.00;19.30;;;;;;;4.10;73.97;99781.77;126272;1315;108748;-89
2021/11/25 09:35:17;;;;;;;34.30;19.90;;;;;;;4.20;73.71;99771.48;126292;1316;108763;-88
2021/11/25 09:38:23;;;;;;;36.30;20.40;;;;;;;4.29;73.87;99760.37;126291;1319;107804;-88
2021/11/25 09:41:29;;;;;;;34.50;20.20;;;;;;;4.38;73.74;99750.65;126247;1316;105617;-86
2021/11/25 09:44:35;;;;;;;34.00;20.00;;;;;;;4.44;73.50;99743.15;126413;1312;108929;-87
2021/11/25 09:47:42;;;;;;;33.50;20.60;;;;;;;4.47;73.23;99743.20;126410;1319;108826;-87
2021/11/25 09:50:50;;;;;;;35.30;20.70;;;;;;;4.48;73.26;99746.86;126276;1315;109032;-87
2021/11/25 09:53:56;;;;;;;33.40;19.90;;;;;;;4.49;73.30;99747.41;126280;1318;108951;-86
2021/11/25 09:57:02;;;;;;;35.50;20.70;;;;;;;4.52;73.48;99745.61;126501;1316;107753;-89
2021/11/25 10:00:10;;;;;;;41.50;23.40;;;;;;;4.55;73.06;99734.66;126613;1313;106567;-88
2021/11/25 10:03:18;;;;;;;36.60;21.60;;;;;;;4.55;73.34;99723.71;126663;1312;107800;-89
2021/11/25 10:06:26;;;;;;;42.80;24.30;;;;;;;4.55;73.09;99718.26;126671;1313;107823;-88
2021/11/25 10:09:40;;;;;;;51.80;31.90;;;;;;;4.53;73.02;99713.45;126583;1316;108985;-89
2021/11/25 10:12:55;;;;;;;71.80;37.00;;;;;;;4.54;73.05;99708.41;126503;1312;108952;-85
2021/11/25 10:16:01;;;;;;;50.90;27.10;;;;;;;4.57;72.95;99704.52;126493;1315;108738;-86
2021/11/25 10:19:14;;;;;;;76.40;36.10;;;;;;;4.60;72.82;99704.42;126229;1320;108304;-88
2021/11/25 10:22:20;;;;;;;94.70;44.20;;;;;;;4.66;72.88;99699.52;126518;1313;108960;-85
2021/11/25 10:25:40;;;;;;;50.30;26.30;;;;;;;4.74;72.65;99698.48;126564;1319;108741;-87
2021/11/25 10:28:48;;;;;;;97.60;48.40;;;;;;;4.79;72.58;99691.27;126582;1312;107802;-86
2021/11/25 10:31:56;;;;;;;76.40;42.30;;;;;;;4.83;72.68;99680.17;126573;1312;107749;-85
2021/11/25 10:35:22;;;;;;;41.20;24.40;;;;;;;4.84;72.31;99680.59;126584;1312;108108;-87
2021/11/25 10:38:36;;;;;;;38.50;22.80;;;;;;;4.83;72.37;99683.66;126561;1312;108910;-87
2021/11/25 10:41:49;;;;;;;35.00;21.70;;;;;;;4.84;72.19;99677.27;126509;1319;109873;-87
2021/11/25 10:44:55;;;;;;;34.30;21.50;;;;;;;4.83;72.13;99670.81;126440;1313;109189;-87
2021/11/25 10:48:04;;;;;;;38.20;21.90;;;;;;;4.81;72.14;99664.99;126494;1312;107045;-86
2021/11/25 10:51:29;;;;;;;37.60;22.50;;;;;;;4.80;72.20;99661.39;126497;1313;107676;-84
2021/11/25 10:54:34;;;;;;;36.90;22.40;;;;;;;4.78;71.82;99662.02;126498;1312;108790;-90
2021/11/25 10:57:43;;;;;;;37.10;22.70;;;;;;;4.76;72.00;99655.89;126493;1312;107828;-87
2021/11/25 11:00:48;;;;;;;37.90;22.50;;;;;;;4.76;71.72;99651.34;126556;1316;108935;-87
2021/11/25 11:03:59;;;;;;;40.10;24.30;;;;;;;4.72;71.61;99648.61;126535;1312;108879;-88
2021/11/25 11:07:23;;;;;;;40.20;23.30;;;;;;;4.69;71.28;99639.41;126594;1320;107783;-89
2021/11/25 11:10:31;;;;;;;39.00;22.50;;;;;;;4.65;71.10;99631.96;126537;1312;108955;-87
2021/11/25 11:13:46;;;;;;;40.30;23.20;;;;;;;4.63;71.51;99633.00;126603;1312;108669;-88
2021/11/25 11:17:20;;;;;;;37.10;21.90;;;;;;;4.64;71.60;99622.73;126515;1319;109271;-87
2021/11/25 11:20:26;;;;;;;38.30;21.40;;;;;;;4.72;71.53;99617.63;126662;1313;108708;-87
2021/11/25 11:23:31;;;;;;;33.70;21.00;;;;;;;4.83;71.50;99614.78;126529;1312;108858;-88
2021/11/25 11:26:40;;;;;;;34.60;21.20;;;;;;;4.92;71.12;99610.96;126573;1312;107930;-89
2021/11/25 11:29:45;;;;;;;34.70;21.10;;;;;;;4.99;71.29;99609.83;126591;1312;107853;-87
2021/11/25 11:32:51;;;;;;;35.20;22.00;;;;;;;5.03;70.69;99606.65;126592;1316;107683;-87
2021/11/25 11:35:57;;;;;;;36.20;22.90;;;;;;;5.03;70.46;99603.32;126436;1318;108890;-87
2021/11/25 11:39:03;;;;;;;35.30;21.60;;;;;;;5.01;70.79;99603.13;126539;1316;109066;-87
2021/11/25 11:42:11;;;;;;;37.60;22.70;;;;;;;5.02;70.56;99601.70;126487;1312;108820;-86
2021/11/25 11:45:18;;;;;;;35.90;22.10;;;;;;;5.01;70.68;99594.33;126473;1314;108930;-86
2021/11/25 11:48:24;;;;;;;36.90;22.10;;;;;;;5.02;70.63;99588.09;126492;1315;108700;-87
2021/11/25 11:51:31;;;;;;;35.50;21.70;;;;;;;5.01;70.72;99582.52;126535;1312;107765;-86
2021/11/25 11:54:44;;;;;;;35.50;22.20;;;;;;;5.02;70.67;99569.78;126531;1319;108918;-88
2021/11/25 11:57:50;;;;;;;37.40;23.00;;;;;;;5.02;70.87;99559.00;126562;1318;108942;-88
2021/11/25 12:00:57;;;;;;;38.50;22.60;;;;;;;5.03;70.84;99549.38;126512;1313;109045;-86
2021/11/25 12:04:16;;;;;;;37.00;23.00;;;;;;;5.03;70.91;99540.20;126603;1312;107787;-87
2021/11/25 12:07:27;;;;;;;34.30;21.70;;;;;;;5.05;70.86;99535.28;126529;1304;106275;-88
2021/11/25 12:11:07;;;;;;;37.40;22.40;;;;;;;5.06;70.68;99536.56;126515;1312;108919;-89
2021/11/25 12:14:18;;;;;;;36.70;22.10;;;;;;;5.06;70.87;99529.54;126703;1319;108903;-90
2021/11/25 12:17:34;;;;;;;38.30;22.50;;;;;;;5.08;70.82;99519.16;126533;1318;108850;-88
2021/11/25 12:20:56;;;;;;;40.60;24.40;;;;;;;5.14;70.89;99508.43;126672;1319;108821;-88
2021/11/25 12:24:25;;;;;;;60.80;33.40;;;;;;;5.22;70.62;99502.57;126573;1319;107888;-88
2021/11/25 12:27:36;;;;;;;36.40;22.50;;;;;;;5.35;70.63;99489.64;126485;1319;107766;-87
2021/11/25 12:30:51;;;;;;;52.30;29.30;;;;;;;5.49;70.53;99483.23;126495;1313;108776;-85
2021/11/25 12:33:56;;;;;;;40.80;25.00;;;;;;;5.61;70.59;99476.35;126520;1312;108921;-89
2021/11/25 12:37:02;;;;;;;35.50;22.40;;;;;;;5.70;70.31;99464.55;126507;1315;108723;-87
2021/11/25 12:40:08;;;;;;;33.40;21.30;;;;;;;5.79;70.24;99461.04;126521;1319;107868;-86
2021/11/25 12:43:16;;;;;;;35.30;21.30;;;;;;;5.87;70.22;99455.35;126474;1319;106789;-87
2021/11/25 12:46:22;;;;;;;32.30;19.90;;;;;;;5.89;70.23;99450.23;126483;1313;108737;-88
2021/11/25 12:49:27;;;;;;;32.30;20.40;;;;;;;5.89;70.28;99446.33;126409;1317;107886;-86
2021/11/25 12:52:33;;;;;;;33.60;20.60;;;;;;;5.88;69.97;99446.13;126501;1319;107943;-88
2021/11/25 12:55:41;;;;;;;30.10;19.50;;;;;;;5.86;70.25;99438.33;126513;1319;106610;-86
2021/11/25 12:58:51;;;;;;;30.20;18.90;;;;;;;5.86;70.04;99425.42;126515;1312;108985;-89
2021/11/25 13:01:56;;;;;;;30.40;18.50;;;;;;;5.81;69.89;99432.13;126481;1317;108906;-81
2021/11/25 13:05:10;;;;;;;28.00;17.90;;;;;;;5.76;69.94;99426.02;126513;1317;109402;-87
2021/11/25 13:08:28;;;;;;;27.20;17.40;;;;;;;5.71;69.98;99426.55;126845;1316;107526;-89
2021/11/25 13:11:37;;;;;;;27.40;17.90;;;;;;;5.66;70.05;99423.64;126434;1317;107858;-86
2021/11/25 13:14:43;;;;;;;29.30;18.10;;;;;;;5.61;70.09;99418.66;126684;1314;107796;-87
2021/11/25 13:17:59;;;;;;;28.80;16.40;;;;;;;5.55;70.35;99412.31;126701;1312;107928;-87
2021/11/25 13:21:04;;;;;;;28.50;16.90;;;;;;;5.54;70.08;99408.02;126601;1317;107903;-87
2021/11/25 13:24:22;;;;;;;30.60;18.60;;;;;;;5.54;70.07;99409.79;126730;1312;107811;-86
2021/11/25 13:27:27;;;;;;;30.80;19.00;;;;;;;5.58;69.95;99402.89;126675;1316;107915;-87
2021/11/25 13:30:33;;;;;;;29.90;19.30;;;;;;;5.61;69.88;99396.59;126657;1313;107910;-87
2021/11/25 13:33:59;;;;;;;29.40;18.70;;;;;;;5.63;69.73;99387.53;126569;1317;106692;-87
2021/11/25 13:37:09;;;;;;;27.80;17.60;;;;;;;5.62;69.55;99386.91;126574;1317;108842;-88
2021/11/25 13:40:21;;;;;;;30.60;17.90;;;;;;;5.61;69.64;99385.48;126585;1318;108772;-88
2021/11/25 13:43:27;;;;;;;28.80;18.20;;;;;;;5.59;69.65;99378.54;126342;1313;107950;-89
2021/11/25 13:46:39;;;;;;;29.60;18.10;;;;;;;5.58;69.69;99371.30;126405;1318;107866;-86
2021/11/25 13:49:51;;;;;;;29.40;18.20;;;;;;;5.55;69.70;99369.77;126561;1312;105620;-88
2021/11/25 13:53:01;;;;;;;29.30;17.40;;;;;;;5.53;69.85;99366.63;126561;1319;107820;-87
2021/11/25 13:56:10;;;;;;;30.00;18.60;;;;;;;5.50;69.72;99368.95;126559;1315;105444;-88
2021/11/25 13:59:19;;;;;;;28.90;17.30;;;;;;;5.48;69.62;99367.75;126534;1314;107955;-88
2021/11/25 14:02:27;;;;;;;27.50;17.10;;;;;;;5.44;69.74;99370.41;126507;1317;107764;-88
2021/11/25 14:05:43;;;;;;;28.30;16.60;;;;;;;5.40;69.67;99374.32;126540;1319;107765;-89
2021/11/25 14:08:49;;;;;;;26.50;16.30;;;;;;;5.38;69.71;99376.62;126476;1318;107790;-88